sensor_id;sensor_type;location;lat;lon;timestamp;pressure;altitude;pressure_sealevel;temperature;humidity
32109;BME280;18624;50.042;8.436;2024-01-07T00:00:24;100085.84;;;5.51;100.00
32109;BME280;18624;50.042;8.436;2024-01-07T00:02:51;100086.66;;;5.48;100.00
32109;BME280;18624;50.042;8.436;2024-01-07T00:05:18;100088.22;;;5.49;100.00
32109;BME280;18624;50.042;8.436;2024-01-07T00:07:45;99990.09;;;4.85;100.00
32109;BME280;18624;50.042;8.436;2024-01-07T00:10:11;100076.63;;;5.38;100.00
32109;BME280;18624;50.042;8.436;2024-01-07T00:12:38;100085.84;;;5.51;100.00
32109;BME280;18624;50.042;8.436;2024-01-07T00:15:05;100090.53;;;5.47;100.00
32109;BME280;18624;50.042;8.436;2024-01-07T00:17:32;100101.72;;;5.56;100.00
32109;BME280;18624;50.042;8.436;2024-01-07T00:19:59;100092.78;;;5.59;100.00
32109;BME280;18624;50.042;8.436;2024-01-07T00:22:25;100102.47;;;5.61;100.00
32109;BME280;18624;50.042;8.436;2024-01-07T00:24:52;100098.59;;;5.58;100.00
32109;BME280;18624;50.042;8.436;2024-01-07T00:27:18;100103.69;;;5.56;100.00
32109;BME280;18624;50.042;8.436;2024-01-07T00:29:45;100107.59;;;5.55;100.00
32109;BME280;18624;50.042;8.436;2024-01-07T00:32:11;100107.91;;;5.61;100.00
32109;BME280;18624;50.042;8.436;2024-01-07T00:34:38;100110.63;;;5.61;100.00
32109;BME280;18624;50.042;8.436;2024-01-07T00:37:05;100072.38;;;5.37;100.00
32109;BME280;18624;50.042;8.436;2024-01-07T00:39:31;100110.28;;;5.58;100.00
32109;BME280;18624;50.042;8.436;2024-01-07T00:41:58;100111.41;;;5.61;100.00
32109;BME280;18624;50.042;8.436;2024-01-07T00:44:25;100113.34;;;5.64;100.00
32109;BME280;18624;50.042;8.436;2024-01-07T00:46:51;100116.81;;;5.65;100.00
32109;BME280;18624;50.042;8.436;2024-01-07T00:49:17;100107.94;;;5.57;100.00
32109;BME280;18624;50.042;8.436;2024-01-07T00:51:44;100106.94;;;5.37;100.00
32109;BME280;18624;50.042;8.436;2024-01-07T00:54:11;100107.78;;;5.26;100.00
32109;BME280;18624;50.042;8.436;2024-01-07T00:56:37;100117.44;;;5.34;100.00
32109;BME280;18624;50.042;8.436;2024-01-07T00:59:04;100041.66;;;4.88;100.00
32109;BME280;18624;50.042;8.436;2024-01-07T01:01:31;100055.59;;;4.94;100.00
32109;BME280;18624;50.042;8.436;2024-01-07T01:03:57;100035.81;;;4.90;100.00
32109;BME280;18624;50.042;8.436;2024-01-07T01:06:24;100134.03;;;5.47;100.00
32109;BME280;18624;50.042;8.436;2024-01-07T01:08:51;100132.47;;;5.50;100.00
32109;BME280;18624;50.042;8.436;2024-01-07T01:11:17;100068.72;;;5.06;100.00
32109;BME280;18624;50.042;8.436;2024-01-07T01:13:44;100141.84;;;5.45;100.00
32109;BME280;18624;50.042;8.436;2024-01-07T01:16:10;100133.63;;;5.49;100.00
32109;BME280;18624;50.042;8.436;2024-01-07T01:18:37;100140.63;;;5.50;100.00
32109;BME280;18624;50.042;8.436;2024-01-07T01:21:04;100148.38;;;5.51;100.00
32109;BME280;18624;50.042;8.436;2024-01-07T01:23:30;100146.84;;;5.50;100.00
32109;BME280;18624;50.042;8.436;2024-01-07T01:25:57;100152.63;;;5.52;100.00
32109;BME280;18624;50.042;8.436;2024-01-07T01:28:23;100156.13;;;5.56;100.00
32109;BME280;18624;50.042;8.436;2024-01-07T01:30:50;100152.25;;;5.54;100.00
32109;BME280;18624;50.042;8.436;2024-01-07T01:33:16;100171.22;;;5.61;100.00
32109;BME280;18624;50.042;8.436;2024-01-07T01:35:43;100159.56;;;5.64;100.00
32109;BME280;18624;50.042;8.436;2024-01-07T01:38:10;100160.00;;;5.59;100.00
32109;BME280;18624;50.042;8.436;2024-01-07T01:40:37;100164.63;;;5.62;100.00
32109;BME280;18624;50.042;8.436;2024-01-07T01:43:04;100150.69;;;5.56;100.00
32109;BME280;18624;50.042;8.436;2024-01-07T01:45:31;100156.44;;;5.62;100.00
32109;BME280;18624;50.042;8.436;2024-01-07T01:47:57;100167.31;;;5.66;100.00
32109;BME280;18624;50.042;8.436;2024-01-07T01:50:24;100171.56;;;5.67;100.00
32109;BME280;18624;50.042;8.436;2024-01-07T01:52:50;100163.47;;;5.63;100.00
32109;BME280;18624;50.042;8.436;2024-01-07T01:55:18;100161.88;;;5.62;100.00
32109;BME280;18624;50.042;8.436;2024-01-07T01:57:46;100158.84;;;5.56;100.00
32109;BME280;18624;50.042;8.436;2024-01-07T02:00:13;100169.69;;;5.60;100.00
32109;BME280;18624;50.042;8.436;2024-01-07T02:02:40;100162.34;;;5.53;100.00
32109;BME280;18624;50.042;8.436;2024-01-07T02:05:07;100148.41;;;5.44;100.00
32109;BME280;18624;50.042;8.436;2024-01-07T02:07:33;100160.44;;;5.50;100.00
32109;BME280;18624;50.042;8.436;2024-01-07T02:10:00;100164.34;;;5.49;100.00
32109;BME280;18624;50.042;8.436;2024-01-07T02:12:27;100163.97;;;5.44;100.00
32109;BME280;18624;50.042;8.436;2024-01-07T02:14:54;100162.41;;;5.46;100.00
32109;BME280;18624;50.042;8.436;2024-01-07T02:17:20;100110.59;;;5.08;100.00
32109;BME280;18624;50.042;8.436;2024-01-07T02:19:47;100160.50;;;5.40;100.00
32109;BME280;18624;50.042;8.436;2024-01-07T02:22:14;100160.13;;;5.38;100.00
32109;BME280;18624;50.042;8.436;2024-01-07T02:24:40;100154.69;;;5.38;100.00
32109;BME280;18624;50.042;8.436;2024-01-07T02:27:07;100158.94;;;5.42;100.00
32109;BME280;18624;50.042;8.436;2024-01-07T02:29:33;100072.75;;;4.80;100.00
32109;BME280;18624;50.042;8.436;2024-01-07T02:32:00;100156.25;;;5.35;100.00
32109;BME280;18624;50.042;8.436;2024-01-07T02:34:26;100168.63;;;5.43;100.00
32109;BME280;18624;50.042;8.436;2024-01-07T02:36:53;100165.53;;;5.41;100.00
32109;BME280;18624;50.042;8.436;2024-01-07T02:39:19;100169.41;;;5.40;100.00
32109;BME280;18624;50.042;8.436;2024-01-07T02:41:46;100170.97;;;5.41;100.00
32109;BME280;18624;50.042;8.436;2024-01-07T02:44:13;100169.03;;;5.42;100.00
32109;BME280;18624;50.042;8.436;2024-01-07T02:46:40;100159.38;;;5.30;100.00
32109;BME280;18624;50.042;8.436;2024-01-07T02:49:06;100090.97;;;4.79;100.00
32109;BME280;18624;50.042;8.436;2024-01-07T02:51:33;100171.78;;;5.38;100.00
32109;BME280;18624;50.042;8.436;2024-01-07T02:53:59;100174.09;;;5.40;100.00
32109;BME280;18624;50.042;8.436;2024-01-07T02:56:26;100176.03;;;5.39;100.00
32109;BME280;18624;50.042;8.436;2024-01-07T02:58:53;100170.22;;;5.37;100.00
32109;BME280;18624;50.042;8.436;2024-01-07T03:01:22;100173.31;;;5.39;100.00
32109;BME280;18624;50.042;8.436;2024-01-07T03:03:49;100180.72;;;5.35;100.00
32109;BME280;18624;50.042;8.436;2024-01-07T03:06:16;100178.41;;;5.33;100.00
32109;BME280;18624;50.042;8.436;2024-01-07T03:08:43;100183.44;;;5.35;100.00
32109;BME280;18624;50.042;8.436;2024-01-07T03:11:09;100171.53;;;5.15;100.00
32109;BME280;18624;50.042;8.436;2024-01-07T03:13:36;100182.41;;;5.04;100.00
32109;BME280;18624;50.042;8.436;2024-01-07T03:16:02;100168.44;;;5.09;100.00
32109;BME280;18624;50.042;8.436;2024-01-07T03:18:29;100147.94;;;4.97;100.00
32109;BME280;18624;50.042;8.436;2024-01-07T03:20:56;100191.28;;;5.19;100.00
32109;BME280;18624;50.042;8.436;2024-01-07T03:23:23;100174.56;;;5.24;100.00
32109;BME280;18624;50.042;8.436;2024-01-07T03:25:50;100154.88;;;5.09;100.00
32109;BME280;18624;50.042;8.436;2024-01-07T03:28:16;100174.94;;;5.26;100.00
32109;BME280;18624;50.042;8.436;2024-01-07T03:30:43;100187.00;;;5.25;100.00
32109;BME280;18624;50.042;8.436;2024-01-07T03:33:10;100180.00;;;5.24;100.00
32109;BME280;18624;50.042;8.436;2024-01-07T03:35:36;100183.88;;;5.26;100.00
32109;BME280;18624;50.042;8.436;2024-01-07T03:38:03;100107.69;;;4.78;100.00
32109;BME280;18624;50.042;8.436;2024-01-07T03:40:30;100189.69;;;5.25;100.00
32109;BME280;18624;50.042;8.436;2024-01-07T03:42:56;100182.72;;;5.24;100.00
32109;BME280;18624;50.042;8.436;2024-01-07T03:45:23;100113.88;;;4.75;100.00
32109;BME280;18624;50.042;8.436;2024-01-07T03:47:50;100149.88;;;4.97;100.00
32109;BME280;18624;50.042;8.436;2024-01-07T03:50:16;100180.44;;;5.19;100.00
32109;BME280;18624;50.042;8.436;2024-01-07T03:52:43;100169.19;;;5.13;100.00
32109;BME280;18624;50.042;8.436;2024-01-07T03:55:09;100119.31;;;4.75;100.00
32109;BME280;18624;50.042;8.436;2024-01-07T03:57:36;100189.34;;;5.23;100.00
32109;BME280;18624;50.042;8.436;2024-01-07T04:00:03;100194.03;;;5.12;100.00
32109;BME280;18624;50.042;8.436;2024-01-07T04:02:30;100171.59;;;4.97;100.00
32109;BME280;18624;50.042;8.436;2024-01-07T04:04:57;100196.41;;;4.99;100.00
32109;BME280;18624;50.042;8.436;2024-01-07T04:07:23;100110.53;;;4.31;100.00
32109;BME280;18624;50.042;8.436;2024-01-07T04:09:50;100192.22;;;4.83;100.00
32109;BME280;18624;50.042;8.436;2024-01-07T04:12:16;100207.69;;;4.97;100.00
32109;BME280;18624;50.042;8.436;2024-01-07T04:14:43;100204.97;;;5.01;100.00
32109;BME280;18624;50.042;8.436;2024-01-07T04:17:10;100212.31;;;5.04;100.00
32109;BME280;18624;50.042;8.436;2024-01-07T04:19:37;100209.97;;;5.06;100.00
32109;BME280;18624;50.042;8.436;2024-01-07T04:22:04;100202.97;;;5.08;100.00
32109;BME280;18624;50.042;8.436;2024-01-07T04:24:31;100206.06;;;5.14;100.00
32109;BME280;18624;50.042;8.436;2024-01-07T04:26:58;100208.75;;;5.18;100.00
32109;BME280;18624;50.042;8.436;2024-01-07T04:29:24;100211.84;;;5.20;100.00
32109;BME280;18624;50.042;8.436;2024-01-07T04:31:51;100124.03;;;4.60;100.00
32109;BME280;18624;50.042;8.436;2024-01-07T04:34:18;100224.66;;;5.23;100.00
32109;BME280;18624;50.042;8.436;2024-01-07T04:36:44;100219.19;;;5.26;100.00
32109;BME280;18624;50.042;8.436;2024-01-07T04:39:11;100223.50;;;5.24;100.00
32109;BME280;18624;50.042;8.436;2024-01-07T04:41:37;100225.03;;;5.25;100.00
32109;BME280;18624;50.042;8.436;2024-01-07T04:44:04;100226.97;;;5.24;100.00
32109;BME280;18624;50.042;8.436;2024-01-07T04:46:34;100230.88;;;5.23;100.00
32109;BME280;18624;50.042;8.436;2024-01-07T04:49:00;100228.91;;;5.27;100.00
32109;BME280;18624;50.042;8.436;2024-01-07T04:51:27;100242.50;;;5.27;100.00
32109;BME280;18624;50.042;8.436;2024-01-07T04:53:54;100206.50;;;5.05;100.00
32109;BME280;18624;50.042;8.436;2024-01-07T04:56:20;100242.09;;;5.25;100.00
32109;BME280;18624;50.042;8.436;2024-01-07T04:58:47;100243.28;;;5.28;100.00
32109;BME280;18624;50.042;8.436;2024-01-07T05:01:14;100237.47;;;5.22;100.00
32109;BME280;18624;50.042;8.436;2024-01-07T05:03:40;100247.19;;;5.20;100.00
32109;BME280;18624;50.042;8.436;2024-01-07T05:06:11;100241.00;;;5.08;100.00
32109;BME280;18624;50.042;8.436;2024-01-07T05:08:37;100252.25;;;5.11;100.00
32109;BME280;18624;50.042;8.436;2024-01-07T05:11:04;100247.25;;;5.02;100.00
32109;BME280;18624;50.042;8.436;2024-01-07T05:13:30;100260.81;;;5.09;100.00
32109;BME280;18624;50.042;8.436;2024-01-07T05:15:57;100267.41;;;5.08;100.00
32109;BME280;18624;50.042;8.436;2024-01-07T05:18:24;100267.44;;;4.97;100.00
32109;BME280;18624;50.042;8.436;2024-01-07T05:20:51;100197.38;;;4.46;100.00
32109;BME280;18624;50.042;8.436;2024-01-07T05:23:18;100267.50;;;4.83;100.00
32109;BME280;18624;50.042;8.436;2024-01-07T05:25:45;100266.72;;;4.68;100.00
32109;BME280;18624;50.042;8.436;2024-01-07T05:28:12;100262.09;;;4.58;100.00
32109;BME280;18624;50.042;8.436;2024-01-07T05:30:40;100282.25;;;4.71;100.00
32109;BME280;18624;50.042;8.436;2024-01-07T05:33:07;100283.81;;;4.65;100.00
32109;BME280;18624;50.042;8.436;2024-01-07T05:35:34;100288.09;;;4.52;100.00
32109;BME280;18624;50.042;8.436;2024-01-07T05:38:01;100261.34;;;4.29;100.00
32109;BME280;18624;50.042;8.436;2024-01-07T05:40:27;100239.25;;;4.09;100.00
32109;BME280;18624;50.042;8.436;2024-01-07T05:42:54;100298.94;;;4.38;100.00
32109;BME280;18624;50.042;8.436;2024-01-07T05:45:20;100292.38;;;4.28;100.00
32109;BME280;18624;50.042;8.436;2024-01-07T05:47:47;100300.88;;;4.16;100.00
32109;BME280;18624;50.042;8.436;2024-01-07T05:50:13;100305.53;;;4.22;100.00
32109;BME280;18624;50.042;8.436;2024-01-07T05:52:42;100253.19;;;3.90;100.00
32109;BME280;18624;50.042;8.436;2024-01-07T05:55:09;100314.06;;;4.24;100.00
32109;BME280;18624;50.042;8.436;2024-01-07T05:57:36;100300.09;;;4.22;100.00
32109;BME280;18624;50.042;8.436;2024-01-07T06:00:03;100313.28;;;4.24;100.00
32109;BME280;18624;50.042;8.436;2024-01-07T06:02:38;100313.28;;;4.27;100.00
32109;BME280;18624;50.042;8.436;2024-01-07T06:05:05;100317.16;;;4.23;100.00
32109;BME280;18624;50.042;8.436;2024-01-07T06:07:32;100324.53;;;4.19;100.00
32109;BME280;18624;50.042;8.436;2024-01-07T06:09:59;100328.38;;;4.14;100.00
32109;BME280;18624;50.042;8.436;2024-01-07T06:12:26;100329.53;;;4.13;100.00
32109;BME280;18624;50.042;8.436;2024-01-07T06:14:52;100325.69;;;4.11;100.00
32109;BME280;18624;50.042;8.436;2024-01-07T06:17:19;100338.09;;;4.19;100.00
32109;BME280;18624;50.042;8.436;2024-01-07T06:19:45;100340.81;;;4.19;100.00
32109;BME280;18624;50.042;8.436;2024-01-07T06:22:12;100350.88;;;4.22;100.00
32109;BME280;18624;50.042;8.436;2024-01-07T06:24:39;100338.88;;;4.19;100.00
32109;BME280;18624;50.042;8.436;2024-01-07T06:27:05;100235.69;;;3.44;100.00
32109;BME280;18624;50.042;8.436;2024-01-07T06:29:32;100353.56;;;4.11;100.00
32109;BME280;18624;50.042;8.436;2024-01-07T06:31:59;100347.38;;;4.07;100.00
32109;BME280;18624;50.042;8.436;2024-01-07T06:34:26;100346.59;;;4.03;100.00
32109;BME280;18624;50.042;8.436;2024-01-07T06:36:53;100365.59;;;4.10;100.00
32109;BME280;18624;50.042;8.436;2024-01-07T06:39:19;100371.38;;;4.09;100.00
32109;BME280;18624;50.042;8.436;2024-01-07T06:41:46;100365.94;;;4.05;100.00
32109;BME280;18624;50.042;8.436;2024-01-07T06:44:12;100374.13;;;4.16;100.00
32109;BME280;18624;50.042;8.436;2024-01-07T06:46:40;100380.66;;;4.00;100.00
32109;BME280;18624;50.042;8.436;2024-01-07T06:49:06;100376.41;;;4.03;100.00
32109;BME280;18624;50.042;8.436;2024-01-07T06:51:35;100388.06;;;4.07;100.00
32109;BME280;18624;50.042;8.436;2024-01-07T06:54:02;100397.69;;;3.94;100.00
32109;BME280;18624;50.042;8.436;2024-01-07T06:56:28;100388.78;;;3.90;100.00
32109;BME280;18624;50.042;8.436;2024-01-07T06:58:55;100389.47;;;3.72;100.00
32109;BME280;18624;50.042;8.436;2024-01-07T07:01:22;100381.38;;;3.76;100.00
32109;BME280;18624;50.042;8.436;2024-01-07T07:03:50;100403.09;;;3.87;100.00
32109;BME280;18624;50.042;8.436;2024-01-07T07:06:16;100401.94;;;3.88;100.00
32109;BME280;18624;50.042;8.436;2024-01-07T07:08:43;100416.66;;;3.87;100.00
32109;BME280;18624;50.042;8.436;2024-01-07T07:11:09;100412.75;;;3.80;100.00
32109;BME280;18624;50.042;8.436;2024-01-07T07:13:36;100398.78;;;3.71;100.00
32109;BME280;18624;50.042;8.436;2024-01-07T07:16:05;100297.44;;;3.03;100.00
32109;BME280;18624;50.042;8.436;2024-01-07T07:18:31;100413.88;;;3.72;100.00
32109;BME280;18624;50.042;8.436;2024-01-07T07:20:59;100416.53;;;3.58;100.00
32109;BME280;18624;50.042;8.436;2024-01-07T07:23:26;100369.53;;;3.29;100.00
32109;BME280;18624;50.042;8.436;2024-01-07T07:25:52;100440.16;;;3.61;100.00
32109;BME280;18624;50.042;8.436;2024-01-07T07:28:18;100428.94;;;3.63;100.00
32109;BME280;18624;50.042;8.436;2024-01-07T07:30:45;100436.22;;;3.48;100.00
32109;BME280;18624;50.042;8.436;2024-01-07T07:33:17;100440.16;;;3.58;100.00
32109;BME280;18624;50.042;8.436;2024-01-07T07:35:44;100443.19;;;3.49;100.00
32109;BME280;18624;50.042;8.436;2024-01-07T07:38:10;100441.28;;;3.53;100.00
32109;BME280;18624;50.042;8.436;2024-01-07T07:40:37;100456.03;;;3.63;100.00
32109;BME280;18624;50.042;8.436;2024-01-07T07:43:03;100459.06;;;3.50;100.00
32109;BME280;18624;50.042;8.436;2024-01-07T07:45:30;100460.97;;;3.46;100.00
32109;BME280;18624;50.042;8.436;2024-01-07T07:47:57;100465.63;;;3.46;100.00
32109;BME280;18624;50.042;8.436;2024-01-07T07:50:23;100468.78;;;3.51;100.00
32109;BME280;18624;50.042;8.436;2024-01-07T07:52:50;100468.34;;;3.49;100.00
32109;BME280;18624;50.042;8.436;2024-01-07T07:55:16;100470.31;;;3.52;100.00
32109;BME280;18624;50.042;8.436;2024-01-07T07:57:43;100469.59;;;3.63;100.00
32109;BME280;18624;50.042;8.436;2024-01-07T08:00:10;100496.75;;;3.70;100.00
32109;BME280;18624;50.042;8.436;2024-01-07T08:02:39;100491.28;;;3.63;100.00
32109;BME280;18624;50.042;8.436;2024-01-07T08:05:06;100487.00;;;3.58;100.00
32109;BME280;18624;50.042;8.436;2024-01-07T08:07:33;100500.94;;;3.60;100.00
32109;BME280;18624;50.042;8.436;2024-01-07T08:10:00;100436.03;;;3.19;100.00
32109;BME280;18624;50.042;8.436;2024-01-07T08:12:26;100501.38;;;3.66;100.00
32109;BME280;18624;50.042;8.436;2024-01-07T08:14:53;100501.31;;;3.59;100.00
32109;BME280;18624;50.042;8.436;2024-01-07T08:17:20;100495.13;;;3.58;100.00
32109;BME280;18624;50.042;8.436;2024-01-07T08:19:46;100502.41;;;3.47;100.00
32109;BME280;18624;50.042;8.436;2024-01-07T08:22:13;100510.09;;;3.41;100.00
32109;BME280;18624;50.042;8.436;2024-01-07T08:24:40;100508.16;;;3.38;100.00
32109;BME280;18624;50.042;8.436;2024-01-07T08:27:08;100510.06;;;3.34;100.00
32109;BME280;18624;50.042;8.436;2024-01-07T08:29:35;100520.56;;;3.39;100.00
32109;BME280;18624;50.042;8.436;2024-01-07T08:32:02;100463.81;;;3.09;100.00
32109;BME280;18624;50.042;8.436;2024-01-07T08:34:28;100526.81;;;3.47;100.00
32109;BME280;18624;50.042;8.436;2024-01-07T08:36:55;100517.75;;;3.28;100.00
32109;BME280;18624;50.042;8.436;2024-01-07T08:39:22;100531.41;;;3.39;100.00
32109;BME280;18624;50.042;8.436;2024-01-07T08:41:48;100532.47;;;3.31;100.00
32109;BME280;18624;50.042;8.436;2024-01-07T08:44:15;100527.81;;;3.28;100.00
32109;BME280;18624;50.042;8.436;2024-01-07T08:46:41;100534.81;;;3.33;100.00
32109;BME280;18624;50.042;8.436;2024-01-07T08:49:08;100539.09;;;3.37;100.00
32109;BME280;18624;50.042;8.436;2024-01-07T08:51:35;100531.03;;;3.44;100.00
32109;BME280;18624;50.042;8.436;2024-01-07T08:54:01;100393.34;;;2.50;100.00
32109;BME280;18624;50.042;8.436;2024-01-07T08:56:28;100474.16;;;2.93;100.00
32109;BME280;18624;50.042;8.436;2024-01-07T08:58:54;100548.81;;;3.38;100.00
32109;BME280;18624;50.042;8.436;2024-01-07T09:01:21;100538.22;;;3.22;100.00
32109;BME280;18624;50.042;8.436;2024-01-07T09:03:48;100549.44;;;3.21;100.00
32109;BME280;18624;50.042;8.436;2024-01-07T09:06:15;100551.75;;;3.22;100.00
32109;BME280;18624;50.042;8.436;2024-01-07T09:08:41;100566.03;;;3.19;100.00
32109;BME280;18624;50.042;8.436;2024-01-07T09:11:08;100562.97;;;3.21;100.00
32109;BME280;18624;50.042;8.436;2024-01-07T09:13:37;100570.69;;;3.15;100.00
32109;BME280;18624;50.042;8.436;2024-01-07T09:16:07;100577.97;;;3.11;100.00
32109;BME280;18624;50.042;8.436;2024-01-07T09:18:35;100459.00;;;2.44;100.00
32109;BME280;18624;50.042;8.436;2024-01-07T09:21:02;100586.53;;;3.17;100.00
32109;BME280;18624;50.042;8.436;2024-01-07T09:23:29;100586.94;;;3.15;100.00
32109;BME280;18624;50.042;8.436;2024-01-07T09:25:56;100598.44;;;3.09;100.00
32109;BME280;18624;50.042;8.436;2024-01-07T09:28:22;100579.88;;;3.07;100.00
32109;BME280;18624;50.042;8.436;2024-01-07T09:30:49;100597.00;;;3.18;100.00
32109;BME280;18624;50.042;8.436;2024-01-07T09:33:15;100605.13;;;3.18;100.00
32109;BME280;18624;50.042;8.436;2024-01-07T09:35:42;100608.44;;;3.01;100.00
32109;BME280;18624;50.042;8.436;2024-01-07T09:38:10;100618.53;;;3.04;100.00
32109;BME280;18624;50.042;8.436;2024-01-07T09:40:39;100613.84;;;3.01;100.00
32109;BME280;18624;50.042;8.436;2024-01-07T09:43:05;100626.28;;;3.05;100.00
32109;BME280;18624;50.042;8.436;2024-01-07T09:45:32;100617.03;;;3.10;100.00
32109;BME280;18624;50.042;8.436;2024-01-07T09:47:59;100525.88;;;2.47;100.00
32109;BME280;18624;50.042;8.436;2024-01-07T09:50:26;100564.44;;;2.74;100.00
32109;BME280;18624;50.042;8.436;2024-01-07T09:52:54;100623.28;;;3.14;100.00
32109;BME280;18624;50.042;8.436;2024-01-07T09:55:32;100633.75;;;3.19;100.00
32109;BME280;18624;50.042;8.436;2024-01-07T09:57:59;100628.34;;;3.16;100.00
32109;BME280;18624;50.042;8.436;2024-01-07T10:00:27;100626.41;;;3.16;100.00
32109;BME280;18624;50.042;8.436;2024-01-07T10:02:54;100593.63;;;2.91;100.00
32109;BME280;18624;50.042;8.436;2024-01-07T10:05:20;100655.03;;;3.17;100.00
32109;BME280;18624;50.042;8.436;2024-01-07T10:07:47;100585.25;;;2.66;100.00
32109;BME280;18624;50.042;8.436;2024-01-07T10:10:15;100639.41;;;3.03;100.00
32109;BME280;18624;50.042;8.436;2024-01-07T10:12:45;100643.28;;;3.06;100.00
32109;BME280;18624;50.042;8.436;2024-01-07T10:15:13;100644.88;;;3.07;100.00
32109;BME280;18624;50.042;8.436;2024-01-07T10:17:41;100642.91;;;3.04;100.00
32109;BME280;18624;50.042;8.436;2024-01-07T10:20:09;100657.56;;;2.99;100.00
32109;BME280;18624;50.042;8.436;2024-01-07T10:22:37;100642.31;;;2.88;100.00
32109;BME280;18624;50.042;8.436;2024-01-07T10:25:05;100642.78;;;2.93;100.00
32109;BME280;18624;50.042;8.436;2024-01-07T10:27:35;100614.59;;;2.64;100.00
32109;BME280;18624;50.042;8.436;2024-01-07T10:30:03;100655.94;;;2.95;100.00
32109;BME280;18624;50.042;8.436;2024-01-07T10:32:30;100652.09;;;2.96;100.00
32109;BME280;18624;50.042;8.436;2024-01-07T10:35:04;100651.31;;;2.95;100.00
32109;BME280;18624;50.042;8.436;2024-01-07T10:37:32;100665.97;;;2.91;100.00
32109;BME280;18624;50.042;8.436;2024-01-07T10:39:59;100661.31;;;2.91;100.00
32109;BME280;18624;50.042;8.436;2024-01-07T10:42:31;100658.50;;;2.81;100.00
32109;BME280;18624;50.042;8.436;2024-01-07T10:45:00;100664.34;;;2.86;100.00
32109;BME280;18624;50.042;8.436;2024-01-07T10:47:29;100657.84;;;2.91;100.00
32109;BME280;18624;50.042;8.436;2024-01-07T10:49:58;100663.97;;;2.88;100.00
32109;BME280;18624;50.042;8.436;2024-01-07T10:52:27;100573.66;;;2.06;100.00
32109;BME280;18624;50.042;8.436;2024-01-07T10:54:56;100652.97;;;2.73;100.00
32109;BME280;18624;50.042;8.436;2024-01-07T10:57:43;100667.78;;;2.83;100.00
32109;BME280;18624;50.042;8.436;2024-01-07T11:00:13;100597.13;;;2.28;100.00
32109;BME280;18624;50.042;8.436;2024-01-07T11:08:26;100574.16;;;2.15;100.00
32109;BME280;18624;50.042;8.436;2024-01-07T11:11:19;100668.56;;;2.80;100.00
32109;BME280;18624;50.042;8.436;2024-01-07T11:13:49;100676.28;;;2.82;100.00
32109;BME280;18624;50.042;8.436;2024-01-07T11:19:05;100672.22;;;2.65;100.00
32109;BME280;18624;50.042;8.436;2024-01-07T11:21:31;100662.47;;;2.60;100.00
32109;BME280;18624;50.042;8.436;2024-01-07T11:23:58;100595.75;;;2.11;100.00
32109;BME280;18624;50.042;8.436;2024-01-07T11:26:28;100608.28;;;2.23;100.00
32109;BME280;18624;50.042;8.436;2024-01-07T11:28:56;100680.06;;;2.73;100.00
32109;BME280;18624;50.042;8.436;2024-01-07T11:34:05;100624.34;;;2.39;100.00
32109;BME280;18624;50.042;8.436;2024-01-07T11:36:35;100676.28;;;2.82;100.00
32109;BME280;18624;50.042;8.436;2024-01-07T11:39:03;100621.03;;;2.52;100.00
32109;BME280;18624;50.042;8.436;2024-01-07T11:41:33;100667.03;;;2.83;100.00
32109;BME280;18624;50.042;8.436;2024-01-07T11:44:00;100672.69;;;2.70;100.00
32109;BME280;18624;50.042;8.436;2024-01-07T11:46:32;100626.25;;;2.38;100.00
32109;BME280;18624;50.042;8.436;2024-01-07T11:48:59;100665.94;;;2.57;100.00
32109;BME280;18624;50.042;8.436;2024-01-07T11:51:28;100667.63;;;2.69;100.00
32109;BME280;18624;50.042;8.436;2024-01-07T11:53:56;100626.25;;;2.38;100.00
32109;BME280;18624;50.042;8.436;2024-01-07T11:56:24;100671.97;;;2.77;100.00
32109;BME280;18624;50.042;8.436;2024-01-07T11:58:51;100606.47;;;2.31;100.00
32109;BME280;18624;50.042;8.436;2024-01-07T12:01:18;100617.41;;;2.41;100.00
32109;BME280;18624;50.042;8.436;2024-01-07T12:03:46;100694.00;;;2.75;100.00
32109;BME280;18624;50.042;8.436;2024-01-07T12:06:13;100698.16;;;2.69;100.00
32109;BME280;18624;50.042;8.436;2024-01-07T12:08:43;100690.88;;;2.73;100.00
32109;BME280;18624;50.042;8.436;2024-01-07T12:11:14;100642.06;;;2.36;100.00
32109;BME280;18624;50.042;8.436;2024-01-07T12:13:41;100649.50;;;2.43;100.00
32109;BME280;18624;50.042;8.436;2024-01-07T12:16:08;100700.25;;;2.79;100.00
32109;BME280;18624;50.042;8.436;2024-01-07T12:18:36;100670.75;;;2.71;100.00
32109;BME280;18624;50.042;8.436;2024-01-07T12:21:03;100702.81;;;2.69;100.00
32109;BME280;18624;50.042;8.436;2024-01-07T12:23:34;100611.00;;;1.96;100.00
32109;BME280;18624;50.042;8.436;2024-01-07T12:26:08;100689.50;;;2.57;100.00
32109;BME280;18624;50.042;8.436;2024-01-07T12:28:36;100705.72;;;2.57;100.00
32109;BME280;18624;50.042;8.436;2024-01-07T12:31:07;100703.03;;;2.57;100.00
32109;BME280;18624;50.042;8.436;2024-01-07T12:33:37;100672.22;;;2.38;100.00
32109;BME280;18624;50.042;8.436;2024-01-07T12:36:06;100709.91;;;2.50;100.00
32109;BME280;18624;50.042;8.436;2024-01-07T12:38:36;100718.34;;;2.45;100.00
32109;BME280;18624;50.042;8.436;2024-01-07T12:41:05;100656.16;;;1.96;100.00
32109;BME280;18624;50.042;8.436;2024-01-07T12:43:31;100659.25;;;1.94;100.00
32109;BME280;18624;50.042;8.436;2024-01-07T12:45:58;100708.75;;;2.25;100.00
32109;BME280;18624;50.042;8.436;2024-01-07T12:48:31;100618.84;;;1.56;100.00
32109;BME280;18624;50.042;8.436;2024-01-07T12:50:58;100738.22;;;2.30;100.00
32109;BME280;18624;50.042;8.436;2024-01-07T12:53:24;100652.25;;;1.67;100.00
32109;BME280;18624;50.042;8.436;2024-01-07T12:55:52;100738.41;;;2.18;100.00
32109;BME280;18624;50.042;8.436;2024-01-07T12:58:19;100734.09;;;2.13;100.00
32109;BME280;18624;50.042;8.436;2024-01-07T13:00:45;100743.75;;;2.14;100.00